Time;durP1;ratioP1;P1;durP2;ratioP2;P2;SDS_P1;SDS_P2;PMS_P1;PMS_P2;Temp;Humidity;BMP_temperature;BMP_pressure;BME280_temperature;BME280_humidity;BME280_pressure;Samples;Min_cycle;Max_cycle;Signal;HPM_P1;HPM_P2
2021/12/25 00:00:20;;;;;;;3.60;3.27;;;3.60;17.30;;;;;;5050025;28;20351;-52
2021/12/25 00:02:46;;;;;;;2.30;2.00;;;3.70;1.80;;;;;;5053188;28;20227;-54
2021/12/25 00:05:12;;;;;;;2.77;2.40;;;3.50;1.00;;;;;;5048358;28;20486;-54
2021/12/25 00:07:38;;;;;;;3.03;2.80;;;3.50;1.00;;;;;;5046519;28;20185;-53
2021/12/25 00:10:05;;;;;;;2.63;2.43;;;3.40;12.80;;;;;;5047461;28;20447;-53
2021/12/25 00:12:32;;;;;;;3.30;2.87;;;3.40;5.10;;;;;;5047055;28;20458;-54
2021/12/25 00:14:58;;;;;;;3.53;3.23;;;;;;;;;;5047443;28;20451;-55
2021/12/25 00:17:26;;;;;;;2.80;2.40;;;3.60;21.70;;;;;;5048540;28;20457;-53
2021/12/25 00:19:52;;;;;;;3.73;2.57;;;;;;;;;;5049442;28;20533;-53
2021/12/25 00:22:17;;;;;;;3.07;2.33;;;3.70;6.80;;;;;;5050080;28;20519;-53
2021/12/25 00:24:45;;;;;;;4.03;2.83;;;3.90;8.50;;;;;;5054691;28;20466;-54
2021/12/25 00:27:36;;;;;;;2.73;2.30;;;3.90;1.00;;;;;;5062046;28;20277;-54
2021/12/25 00:30:13;;;;;;;3.20;2.90;;;3.80;1.00;;;;;;5052116;28;20431;-54
2021/12/25 00:32:50;;;;;;;3.17;2.87;;;3.80;1.00;;;;;;5053865;28;21001;-55
2021/12/25 00:35:16;;;;;;;2.97;2.67;;;4.00;1.00;;;;;;5050212;28;20979;-58
2021/12/25 00:37:41;;;;;;;4.20;3.20;;;4.00;1.00;;;;;;5050439;28;20529;-53
2021/12/25 00:40:08;;;;;;;3.43;2.60;;;4.00;1.00;;;;;;5051091;28;20583;-53
2021/12/25 00:42:33;;;;;;;3.57;3.07;;;4.00;1.00;;;;;;5058154;28;20184;-54
2021/12/25 00:44:59;;;;;;;3.20;3.00;;;4.00;1.00;;;;;;5051906;28;21150;-55
2021/12/25 00:47:25;;;;;;;4.30;3.53;;;4.00;1.00;;;;;;5060302;28;20192;-54
2021/12/25 00:49:51;;;;;;;4.47;3.40;;;;;;;;;;5058357;28;20184;-53
2021/12/25 00:52:16;;;;;;;3.73;2.60;;;3.90;1.00;;;;;;5062975;28;20189;-52
2021/12/25 00:54:42;;;;;;;4.53;3.03;;;3.90;1.00;;;;;;5049875;28;20469;-52
2021/12/25 00:57:08;;;;;;;3.93;3.27;;;4.00;1.00;;;;;;5054447;28;20626;-53
2021/12/25 00:59:34;;;;;;;3.43;3.13;;;;;;;;;;5049484;28;20188;-54
2021/12/25 01:01:59;;;;;;;3.33;3.10;;;3.80;1.00;;;;;;5051330;28;20499;-54
2021/12/25 01:04:26;;;;;;;3.77;3.10;;;;;;;;;;5055093;28;20457;-54
2021/12/25 01:06:51;;;;;;;1.70;1.60;;;3.80;1.00;;;;;;5050256;28;20198;-53
2021/12/25 01:09:17;;;;;;;3.63;1.90;;;3.60;1.00;;;;;;5049729;28;20449;-54
2021/12/25 01:11:46;;;;;;;2.00;1.80;;;3.40;1.00;;;;;;5050384;28;20246;-53
2021/12/25 01:14:23;;;;;;;2.00;1.90;;;3.30;1.00;;;;;;5050608;28;20177;-54
2021/12/25 01:25:19;;;;;;;2.00;1.77;;;3.10;1.00;;;;;;5050434;28;20448;-54
2021/12/25 01:30:47;;;;;;;2.87;2.60;;;3.10;7.30;;;;;;5050481;28;20585;-55
2021/12/25 01:33:47;;;;;;;1.83;1.30;;;3.00;1.00;;;;;;5048340;28;20447;-56
2021/12/25 01:41:53;;;;;;;3.67;1.67;;;;;;;;;;5050773;28;20453;-55
2021/12/25 01:49:37;;;;;;;1.80;1.70;;;2.50;1.00;;;;;;5050190;28;20442;-54
2021/12/25 01:52:04;;;;;;;2.00;1.80;;;2.50;1.00;;;;;;5051155;28;20448;-53
2021/12/25 01:54:30;;;;;;;3.40;1.67;;;;;;;;;;5048617;28;20806;-55
2021/12/25 01:56:56;;;;;;;1.40;1.30;;;2.40;1.00;;;;;;5050419;28;20826;-53
2021/12/25 01:59:22;;;;;;;2.07;1.60;;;2.50;1.00;;;;;;5052184;28;20597;-54
2021/12/25 02:01:48;;;;;;;1.50;1.40;;;2.50;1.00;;;;;;5052577;28;20665;-54
2021/12/25 02:04:13;;;;;;;1.70;1.60;;;2.60;1.00;;;;;;5061694;28;20216;-53
2021/12/25 02:06:40;;;;;;;1.60;1.50;;;2.60;1.00;;;;;;5052584;28;20194;-53
2021/12/25 02:09:06;;;;;;;1.70;1.60;;;2.40;1.00;;;;;;5053115;28;20941;-54
2021/12/25 02:11:32;;;;;;;1.37;1.27;;;2.30;1.00;;;;;;5049452;28;20459;-53
2021/12/25 02:13:58;;;;;;;1.17;1.07;;;2.10;1.00;;;;;;5065711;28;20912;-55
2021/12/25 02:16:29;;;;;;;1.80;1.10;;;1.80;1.00;;;;;;5051029;28;20449;-52
2021/12/25 02:19:03;;;;;;;1.43;1.00;;;1.70;1.00;;;;;;5051589;28;20467;-53
2021/12/25 02:21:37;;;;;;;1.40;1.30;;;1.70;1.00;;;;;;5049102;28;20475;-54
2021/12/25 02:24:11;;;;;;;2.50;1.40;;;1.80;1.00;;;;;;5066988;28;20445;-53
2021/12/25 02:26:40;;;;;;;1.67;1.07;;;1.70;1.00;;;;;;5048794;28;20454;-54
2021/12/25 02:29:05;;;;;;;1.43;1.00;;;1.60;1.00;;;;;;5049789;28;20450;-54
2021/12/25 02:31:31;;;;;;;1.10;1.10;;;1.60;1.00;;;;;;5049520;28;20467;-53
2021/12/25 02:33:57;;;;;;;0.77;0.77;;;1.50;1.00;;;;;;5051811;28;20187;-55
2021/12/25 02:36:22;;;;;;;1.60;0.60;;;1.40;1.00;;;;;;5049798;28;20184;-53
2021/12/25 02:38:49;;;;;;;3.33;0.90;;;1.40;1.00;;;;;;5052491;28;20296;-53
2021/12/25 02:41:16;;;;;;;1.13;1.13;;;1.50;1.00;;;;;;5051655;28;20591;-53
2021/12/25 02:43:44;;;;;;;0.60;0.60;;;1.50;1.00;;;;;;5050104;28;20443;-54
2021/12/25 02:46:10;;;;;;;1.27;1.17;;;1.40;1.00;;;;;;5049609;28;20439;-53
2021/12/25 02:48:37;;;;;;;2.73;0.63;;;1.40;1.00;;;;;;5050658;28;20442;-52
2021/12/25 02:51:04;;;;;;;0.90;0.90;;;1.30;1.00;;;;;;5048657;28;20451;-54
2021/12/25 02:53:29;;;;;;;1.20;0.90;;;1.30;1.00;;;;;;5050634;28;20475;-52
2021/12/25 02:55:55;;;;;;;1.13;0.80;;;1.10;1.00;;;;;;5048809;28;20875;-53
2021/12/25 02:58:21;;;;;;;0.50;0.30;;;0.90;1.00;;;;;;5051396;28;20457;-53
2021/12/25 03:00:49;;;;;;;0.80;0.80;;;0.70;1.00;;;;;;5051886;28;20213;-52
2021/12/25 03:03:14;;;;;;;1.40;0.90;;;0.90;1.00;;;;;;5049853;28;20464;-52
2021/12/25 03:05:40;;;;;;;0.93;0.70;;;0.90;1.00;;;;;;5049376;28;20435;-53
2021/12/25 03:08:08;;;;;;;3.10;0.70;;;0.90;1.00;;;;;;5050430;28;20212;-52
2021/12/25 03:10:35;;;;;;;0.60;0.50;;;0.90;1.00;;;;;;5057990;28;20188;-53
2021/12/25 03:13:19;;;;;;;0.63;0.63;;;0.80;1.00;;;;;;5056515;28;20466;-52
2021/12/25 03:15:47;;;;;;;0.80;0.80;;;0.80;1.00;;;;;;5060932;28;20452;-53
2021/12/25 03:18:17;;;;;;;1.13;0.50;;;0.90;1.00;;;;;;5053218;28;20452;-54
2021/12/25 03:20:46;;;;;;;0.70;0.60;;;0.90;1.00;;;;;;5055633;28;20520;-54
2021/12/25 03:23:14;;;;;;;0.93;0.93;;;1.00;1.00;;;;;;5051144;28;20487;-54
2021/12/25 03:25:41;;;;;;;2.20;0.47;;;0.90;1.00;;;;;;5055448;28;20504;-53
2021/12/25 03:28:07;;;;;;;2.00;0.90;;;0.80;1.00;;;;;;5052829;28;20521;-53
2021/12/25 03:30:37;;;;;;;2.10;0.97;;;1.00;1.00;;;;;;5063067;28;21125;-54
2021/12/25 03:33:04;;;;;;;1.30;0.90;;;1.00;1.00;;;;;;5061230;28;20465;-53
2021/12/25 03:35:29;;;;;;;0.60;0.53;;;0.90;1.00;;;;;;5053332;28;20452;-56
2021/12/25 03:37:55;;;;;;;1.60;1.20;;;0.60;1.00;;;;;;5059718;28;20438;-53
2021/12/25 03:40:21;;;;;;;2.23;1.20;;;;;;;;;;5051745;28;20177;-53
2021/12/25 03:42:46;;;;;;;1.83;1.17;;;0.40;1.00;;;;;;5052755;28;20188;-55
2021/12/25 03:45:12;;;;;;;3.70;2.40;;;0.40;1.00;;;;;;5052544;28;20585;-53
2021/12/25 03:47:39;;;;;;;2.63;2.13;;;0.30;1.00;;;;;;5051840;28;20199;-54
2021/12/25 03:53:22;;;;;;;2.40;1.83;;;0.50;1.00;;;;;;5068879;28;20969;-54
2021/12/25 03:58:32;;;;;;;4.60;2.80;;;0.80;1.00;;;;;;5050025;28;20433;-54
2021/12/25 04:01:09;;;;;;;11.10;3.60;;;0.80;1.00;;;;;;5052157;28;21139;-54
2021/12/25 04:03:45;;;;;;;5.03;2.60;;;0.90;1.00;;;;;;5052667;28;20668;-54
2021/12/25 04:06:11;;;;;;;4.17;2.43;;;0.80;1.00;;;;;;5054640;28;20439;-53
2021/12/25 04:08:44;;;;;;;3.97;2.47;;;;;;;;;;5065811;28;20898;-54
2021/12/25 04:11:14;;;;;;;4.70;3.23;;;1.00;1.00;;;;;;5053827;28;20250;-54
2021/12/25 04:13:40;;;;;;;8.03;4.40;;;1.00;1.00;;;;;;5065584;28;20451;-54
2021/12/25 04:16:06;;;;;;;6.30;3.00;;;0.90;1.00;;;;;;5054799;28;20443;-54
2021/12/25 04:18:31;;;;;;;5.63;2.63;;;1.00;1.00;;;;;;5051843;28;20553;-54
2021/12/25 04:20:57;;;;;;;4.70;3.83;;;1.00;1.00;;;;;;5051782;28;20468;-53
2021/12/25 04:23:26;;;;;;;6.03;3.43;;;1.00;1.00;;;;;;5052124;28;20641;-53
2021/12/25 04:25:54;;;;;;;5.80;4.30;;;0.90;1.00;;;;;;5050704;28;20546;-53
2021/12/25 04:28:34;;;;;;;3.33;2.70;;;0.90;1.00;;;;;;5052874;28;20455;-54
2021/12/25 05:01:42;;;;;;;8.63;2.53;;;1.10;1.00;;;;;;5051751;28;20458;-59
2021/12/25 05:03:59;;;;;;;6.63;2.87;;;0.50;1.00;;;;;;5051047;28;20951;-53
2021/12/25 05:06:25;;;;;;;2.23;2.03;;;0.40;1.00;;;;;;5050361;28;20450;-52
2021/12/25 05:08:52;;;;;;;3.50;2.60;;;0.40;1.00;;;;;;5058406;28;21086;-54
2021/12/25 05:11:19;;;;;;;2.83;2.03;;;0.50;1.00;;;;;;5054777;28;20207;-54
2021/12/25 05:13:46;;;;;;;2.53;1.83;;;0.50;1.00;;;;;;5058603;28;20450;-53
2021/12/25 05:16:12;;;;;;;4.30;2.30;;;0.40;1.00;;;;;;5050746;28;20531;-53
2021/12/25 05:18:38;;;;;;;9.70;2.93;;;0.40;1.00;;;;;;5052111;28;20493;-53
2021/12/25 05:21:03;;;;;;;2.33;1.83;;;0.50;1.00;;;;;;5065993;28;20482;-53
2021/12/25 05:23:30;;;;;;;4.73;2.57;;;;;;;;;;5052379;28;20185;-53
2021/12/25 05:25:55;;;;;;;7.27;2.37;;;0.50;1.00;;;;;;5051939;28;20271;-53
2021/12/25 05:28:26;;;;;;;3.23;2.03;;;0.80;1.00;;;;;;5050467;28;20560;-54
2021/12/25 05:30:53;;;;;;;4.10;2.57;;;0.60;1.00;;;;;;5050011;28;20212;-54
2021/12/25 05:33:19;;;;;;;2.53;2.00;;;0.60;1.00;;;;;;5051296;28;20446;-54
2021/12/25 05:35:45;;;;;;;2.90;2.10;;;0.40;1.00;;;;;;5050562;28;20901;-54
2021/12/25 05:38:14;;;;;;;3.53;2.30;;;0.40;1.00;;;;;;5054264;28;20454;-56
2021/12/25 05:40:44;;;;;;;3.10;2.40;;;0.30;1.00;;;;;;5056010;28;20199;-53
2021/12/25 05:43:09;;;;;;;3.07;2.03;;;0.20;1.00;;;;;;5059895;28;21007;-54
2021/12/25 05:45:35;;;;;;;2.90;1.87;;;0.20;1.00;;;;;;5049909;28;20535;-55
2021/12/25 05:48:01;;;;;;;6.90;2.70;;;0.10;1.00;;;;;;5052750;28;20176;-54
2021/12/25 05:50:26;;;;;;;3.57;3.27;;;0.00;1.00;;;;;;5054207;28;20677;-54
2021/12/25 05:52:55;;;;;;;6.03;2.43;;;0.20;1.00;;;;;;5058287;28;20189;-54
2021/12/25 05:55:21;;;;;;;2.67;2.20;;;0.20;1.00;;;;;;5050525;28;20180;-54
2021/12/25 05:57:47;;;;;;;3.07;2.70;;;0.20;1.00;;;;;;5048369;28;20510;-53
2021/12/25 06:00:12;;;;;;;3.63;2.43;;;0.20;1.00;;;;;;5049213;28;20474;-55
2021/12/25 06:02:38;;;;;;;6.20;2.30;;;0.20;1.00;;;;;;5050332;28;20223;-53
2021/12/25 06:05:06;;;;;;;3.70;2.33;;;0.20;1.00;;;;;;5052457;28;20205;-54
2021/12/25 06:07:32;;;;;;;5.50;3.00;;;0.20;1.00;;;;;;5050588;28;20178;-53
2021/12/25 06:09:57;;;;;;;8.23;3.10;;;0.30;1.00;;;;;;5050650;28;20445;-53
2021/12/25 06:12:24;;;;;;;3.10;2.43;;;0.50;1.00;;;;;;5051013;28;20446;-55
2021/12/25 06:14:51;;;;;;;5.10;2.70;;;0.60;1.00;;;;;;5054127;28;20288;-53
2021/12/25 06:17:17;;;;;;;8.53;3.63;;;0.60;1.00;;;;;;5049815;28;20496;-54
2021/12/25 06:19:43;;;;;;;3.10;2.70;;;;;;;;;;5052464;28;20450;-53
2021/12/25 06:22:08;;;;;;;4.27;2.80;;;4.20;1.00;;;;;;5057035;28;20228;-54
2021/12/25 06:24:34;;;;;;;3.20;2.67;;;0.80;1.00;;;;;;5049996;28;20448;-54
2021/12/25 06:27:00;;;;;;;3.70;2.20;;;0.80;1.00;;;;;;5064312;28;20184;-53
2021/12/25 06:29:26;;;;;;;5.73;2.70;;;0.60;1.00;;;;;;5051544;28;20489;-54
2021/12/25 06:31:52;;;;;;;3.93;2.40;;;0.60;1.00;;;;;;5051512;28;20225;-53
2021/12/25 06:34:18;;;;;;;4.90;2.83;;;0.60;1.00;;;;;;5050835;28;20200;-55
2021/12/25 06:36:44;;;;;;;3.93;2.20;;;;;;;;;;5049822;28;20945;-55
2021/12/25 06:39:15;;;;;;;4.00;2.70;;;0.50;1.00;;;;;;5057306;28;20466;-54
2021/12/25 06:41:44;;;;;;;1.93;1.73;;;0.50;1.00;;;;;;5051204;28;21260;-55
2021/12/25 06:44:10;;;;;;;3.20;2.77;;;0.40;1.00;;;;;;5061702;28;20439;-54
2021/12/25 06:46:36;;;;;;;2.50;2.30;;;;;;;;;;5053475;28;20461;-53
2021/12/25 06:49:02;;;;;;;3.10;2.10;;;0.40;1.00;;;;;;5054701;28;20444;-55
2021/12/25 06:51:27;;;;;;;4.03;2.53;;;0.50;1.00;;;;;;5053552;28;20466;-54
2021/12/25 06:53:53;;;;;;;2.70;2.50;;;;;;;;;;5054395;28;21017;-55
2021/12/25 06:56:20;;;;;;;3.37;2.63;;;0.40;1.00;;;;;;5053245;28;20711;-55
2021/12/25 06:58:45;;;;;;;6.47;2.83;;;0.50;1.00;;;;;;5053724;28;20557;-54
2021/12/25 07:01:11;;;;;;;2.70;2.13;;;0.40;1.00;;;;;;5057102;28;20613;-55
2021/12/25 07:03:36;;;;;;;2.80;2.50;;;0.50;1.00;;;;;;5058869;28;20184;-54
2021/12/25 07:06:02;;;;;;;3.63;2.70;;;0.50;1.00;;;;;;5053773;28;20215;-53
2021/12/25 07:08:28;;;;;;;3.40;2.70;;;;;;;;;;5056701;28;20181;-54
2021/12/25 07:10:54;;;;;;;2.83;2.50;;;0.60;1.00;;;;;;5064097;28;20531;-55
2021/12/25 07:13:20;;;;;;;4.10;3.23;;;0.50;1.00;;;;;;5065484;28;20444;-54
2021/12/25 07:15:47;;;;;;;3.80;2.50;;;0.50;1.00;;;;;;5053524;28;20178;-54
2021/12/25 07:18:12;;;;;;;3.17;1.90;;;0.40;1.00;;;;;;5054843;28;20451;-54
2021/12/25 07:20:38;;;;;;;3.73;2.17;;;0.50;1.00;;;;;;5052922;28;20462;-54
2021/12/25 07:23:04;;;;;;;4.40;1.50;;;0.50;1.00;;;;;;5053495;28;20272;-54
2021/12/25 07:25:30;;;;;;;2.40;2.10;;;0.60;1.00;;;;;;5052241;28;20437;-53
2021/12/25 07:27:56;;;;;;;2.97;1.50;;;0.60;1.00;;;;;;5050762;28;20250;-55
2021/12/25 07:30:22;;;;;;;2.30;1.53;;;0.70;1.00;;;;;;5056089;28;20487;-53
2021/12/25 07:32:47;;;;;;;2.10;1.30;;;0.80;1.00;;;;;;5053742;28;20530;-54
2021/12/25 07:35:13;;;;;;;1.50;1.30;;;;;;;;;;5052551;28;20450;-54
2021/12/25 07:37:39;;;;;;;2.90;1.20;;;0.50;1.00;;;;;;5055391;28;20202;-55
2021/12/25 07:40:06;;;;;;;1.73;1.10;;;0.40;1.00;;;;;;5053135;28;20439;-54
2021/12/25 07:42:32;;;;;;;1.77;1.33;;;0.30;1.00;;;;;;5056609;28;20214;-55
2021/12/25 07:45:03;;;;;;;1.30;1.20;;;0.20;1.00;;;;;;5050799;28;20469;-54
2021/12/25 07:47:31;;;;;;;2.20;1.60;;;0.20;1.00;;;;;;5053659;28;20442;-54
2021/12/25 07:49:59;;;;;;;1.87;1.77;;;0.20;1.00;;;;;;5051973;28;20439;-54
2021/12/25 07:52:27;;;;;;;3.53;2.10;;;0.20;1.00;;;;;;5060634;28;20446;-54
2021/12/25 07:54:53;;;;;;;5.03;2.07;;;0.30;1.00;;;;;;5050331;28;20455;-55
2021/12/25 07:57:18;;;;;;;2.83;1.53;;;0.50;1.00;;;;;;5054896;28;20439;-54
2021/12/25 07:59:44;;;;;;;1.40;1.10;;;0.60;1.00;;;;;;5052233;28;20185;-53
2021/12/25 08:02:10;;;;;;;1.20;1.10;;;0.70;1.00;;;;;;5050898;28;20221;-55
2021/12/25 08:04:36;;;;;;;1.83;1.00;;;;;;;;;;5051740;28;20185;-53
2021/12/25 08:07:02;;;;;;;1.73;0.90;;;0.80;1.00;;;;;;5051854;28;20261;-53
2021/12/25 08:09:29;;;;;;;2.13;0.90;;;;;;;;;;5054631;28;20445;-54
2021/12/25 08:12:02;;;;;;;3.53;1.47;;;1.00;1.00;;;;;;5051673;28;20447;-53
2021/12/25 08:14:29;;;;;;;1.33;1.20;;;1.00;1.00;;;;;;5051882;28;20546;-54
2021/12/25 08:16:57;;;;;;;1.47;1.00;;;1.00;1.00;;;;;;5051831;28;20447;-57
2021/12/25 08:19:23;;;;;;;2.10;1.63;;;1.00;1.00;;;;;;5050802;28;20440;-54
2021/12/25 08:21:48;;;;;;;1.20;1.10;;;1.00;1.00;;;;;;5050902;28;20542;-54
2021/12/25 08:24:14;;;;;;;1.93;1.70;;;1.00;1.00;;;;;;5052524;28;20539;-56
2021/12/25 08:26:41;;;;;;;1.20;1.10;;;1.10;1.00;;;;;;5050793;28;20184;-55
2021/12/25 08:29:06;;;;;;;0.77;0.77;;;1.20;1.00;;;;;;5051476;28;20457;-55
2021/12/25 08:31:32;;;;;;;1.60;0.87;;;1.30;1.00;;;;;;5053739;28;20468;-54
2021/12/25 08:33:57;;;;;;;0.83;0.70;;;1.30;1.00;;;;;;5049982;28;20207;-55
2021/12/25 08:36:23;;;;;;;2.80;1.20;;;1.40;1.00;;;;;;5060450;28;20195;-55
2021/12/25 08:38:49;;;;;;;2.17;0.80;;;1.40;1.00;;;;;;5054581;28;20215;-54
2021/12/25 08:41:15;;;;;;;3.13;1.47;;;1.50;1.00;;;;;;5052356;28;20199;-55
2021/12/25 08:43:47;;;;;;;2.33;0.90;;;1.50;1.00;;;;;;5052394;28;20177;-54
2021/12/25 08:46:24;;;;;;;2.60;0.97;;;1.50;1.00;;;;;;5051217;28;20439;-53
2021/12/25 08:48:52;;;;;;;2.03;0.90;;;1.50;1.00;;;;;;5052735;28;20443;-55
2021/12/25 08:51:17;;;;;;;2.03;1.10;;;1.40;1.00;;;;;;5051183;28;20898;-55
2021/12/25 08:53:43;;;;;;;1.80;0.90;;;1.40;1.00;;;;;;5052523;28;20444;-54
2021/12/25 08:56:09;;;;;;;2.40;1.10;;;1.50;1.00;;;;;;5049866;28;20542;-54
2021/12/25 08:58:35;;;;;;;1.43;0.90;;;1.60;1.00;;;;;;5048964;28;20272;-55
2021/12/25 09:01:01;;;;;;;3.33;0.97;;;1.60;1.00;;;;;;5049019;28;20245;-57
2021/12/25 09:03:29;;;;;;;1.67;1.17;;;1.70;1.00;;;;;;5061218;28;20188;-58
2021/12/25 09:05:56;;;;;;;2.03;1.00;;;1.60;1.00;;;;;;5055638;28;20784;-55
2021/12/25 09:08:23;;;;;;;1.17;0.90;;;1.40;1.00;;;;;;5050943;28;20518;-54
2021/12/25 09:10:49;;;;;;;3.07;1.40;;;1.40;1.00;;;;;;5049417;28;20439;-55
2021/12/25 09:13:14;;;;;;;1.23;0.80;;;1.70;1.00;;;;;;5051014;28;20958;-53
2021/12/25 09:15:40;;;;;;;1.57;1.20;;;;;;;;;;5050757;28;20228;-53
2021/12/25 09:18:06;;;;;;;2.73;1.30;;;1.60;1.00;;;;;;5050506;28;20189;-54
2021/12/25 09:20:31;;;;;;;1.47;1.13;;;1.70;1.00;;;;;;5052347;28;20441;-55
2021/12/25 09:22:57;;;;;;;2.03;0.90;;;1.80;1.00;;;;;;5049884;28;20627;-55
2021/12/25 09:25:24;;;;;;;2.70;0.90;;;2.00;1.00;;;;;;5053477;28;20369;-53
2021/12/25 09:27:57;;;;;;;2.10;1.60;;;2.10;1.00;;;;;;5066883;28;20563;-52
2021/12/25 09:30:22;;;;;;;1.30;1.00;;;2.30;1.00;;;;;;5067807;28;20469;-54
2021/12/25 09:32:48;;;;;;;1.23;0.60;;;2.20;1.00;;;;;;5068408;28;20429;-57
2021/12/25 09:35:14;;;;;;;2.10;1.07;;;1.90;1.00;;;;;;5065780;28;20181;-56
2021/12/25 09:37:40;;;;;;;1.97;1.43;;;1.90;1.00;;;;;;5065716;28;20225;-55
2021/12/25 09:40:08;;;;;;;2.00;1.03;;;1.90;1.00;;;;;;5063781;28;20192;-52
2021/12/25 09:42:34;;;;;;;1.17;1.00;;;1.90;1.00;;;;;;5072294;28;20845;-54
2021/12/25 09:45:00;;;;;;;4.60;1.53;;;1.90;1.00;;;;;;5072181;28;20557;-54
2021/12/25 09:47:26;;;;;;;1.93;1.50;;;1.90;1.00;;;;;;5070419;28;20543;-55
2021/12/25 09:49:52;;;;;;;2.20;0.97;;;2.00;1.00;;;;;;5066347;28;20460;-55
2021/12/25 09:52:19;;;;;;;1.77;1.50;;;1.80;1.00;;;;;;5065551;28;20181;-55
2021/12/25 09:54:45;;;;;;;1.80;0.90;;;1.80;1.00;;;;;;5069723;28;20510;-54
2021/12/25 09:57:13;;;;;;;1.20;1.10;;;1.50;1.00;;;;;;5071370;28;20446;-54
2021/12/25 09:59:39;;;;;;;1.73;1.63;;;;;;;;;;5065218;28;20216;-56
2021/12/25 10:02:13;;;;;;;3.10;2.60;;;1.20;1.00;;;;;;5070618;28;20470;-52
2021/12/25 10:04:45;;;;;;;1.70;1.00;;;1.30;1.00;;;;;;5064663;28;20443;-56
2021/12/25 10:07:27;;;;;;;4.67;1.23;;;1.50;1.00;;;;;;5065798;28;20474;-54
2021/12/25 10:09:57;;;;;;;1.80;1.50;;;1.60;1.00;;;;;;5065156;28;20492;-55
2021/12/25 10:12:28;;;;;;;1.80;1.23;;;1.70;1.00;;;;;;5076123;28;20824;-54
2021/12/25 10:14:54;;;;;;;2.10;1.40;;;1.80;1.00;;;;;;5071393;28;20502;-55
2021/12/25 10:17:30;;;;;;;3.20;1.00;;;1.80;1.00;;;;;;5069069;28;20517;-54
2021/12/25 10:20:30;;;;;;;2.13;1.60;;;1.90;1.00;;;;;;5065728;28;20177;-53
2021/12/25 10:23:09;;;;;;;1.73;0.90;;;2.10;1.00;;;;;;5060269;28;20486;-55
2021/12/25 10:25:48;;;;;;;2.57;1.57;;;2.20;1.00;;;;;;5067136;28;20440;-55
2021/12/25 10:28:16;;;;;;;2.47;1.10;;;2.30;1.00;;;;;;5063784;28;20442;-55
2021/12/25 10:30:45;;;;;;;1.30;1.20;;;2.20;1.00;;;;;;5064666;28;20825;-54
2021/12/25 10:33:29;;;;;;;2.03;1.30;;;2.20;1.00;;;;;;5069629;28;20538;-53
2021/12/25 10:35:58;;;;;;;1.43;1.33;;;2.20;1.00;;;;;;5073005;28;20896;-53
2021/12/25 10:38:24;;;;;;;1.27;1.17;;;2.30;1.00;;;;;;5057246;28;20479;-55
2021/12/25 10:41:00;;;;;;;4.87;1.20;;;2.40;1.00;;;;;;5047528;28;20515;-54
2021/12/25 10:43:25;;;;;;;1.60;1.47;;;2.50;1.00;;;;;;5032898;28;20806;-53
2021/12/25 10:46:02;;;;;;;3.63;2.20;;;2.50;1.00;;;;;;5060227;28;20476;-55
2021/12/25 10:48:29;;;;;;;3.40;2.30;;;2.60;1.00;;;;;;5051531;28;20193;-53
2021/12/25 10:50:57;;;;;;;1.83;1.50;;;2.50;1.00;;;;;;5050721;28;20448;-54
2021/12/25 10:53:29;;;;;;;2.50;1.63;;;2.50;1.00;;;;;;5051847;28;20542;-54
2021/12/25 10:56:06;;;;;;;2.40;2.00;;;2.20;1.00;;;;;;5051553;28;20469;-55
2021/12/25 10:58:31;;;;;;;2.00;1.80;;;2.20;1.00;;;;;;5051018;28;20853;-56
2021/12/25 11:00:58;;;;;;;1.90;1.73;;;1.90;1.00;;;;;;5049931;28;20544;-55
2021/12/25 11:03:44;;;;;;;1.87;1.33;;;2.00;1.00;;;;;;5050472;28;20254;-55
2021/12/25 11:06:18;;;;;;;1.47;1.37;;;2.20;1.00;;;;;;5056264;28;20444;-54
2021/12/25 11:08:46;;;;;;;1.97;1.53;;;2.20;1.00;;;;;;5055610;28;20489;-52
2021/12/25 11:11:16;;;;;;;2.67;1.63;;;2.30;1.00;;;;;;5050595;28;20444;-56
2021/12/25 11:13:44;;;;;;;3.30;1.60;;;2.40;1.00;;;;;;5052825;28;20434;-54
2021/12/25 11:16:20;;;;;;;3.73;1.77;;;2.50;1.00;;;;;;5049489;28;20451;-54
2021/12/25 11:19:08;;;;;;;5.13;2.10;;;2.40;1.00;;;;;;5048281;28;20446;-54
2021/12/25 11:21:49;;;;;;;1.47;1.37;;;2.40;1.00;;;;;;5051890;28;20459;-55
2021/12/25 11:24:21;;;;;;;4.23;1.97;;;-0.50;1.00;;;;;;5046627;28;20596;-55
2021/12/25 11:26:49;;;;;;;4.90;2.10;;;2.20;1.00;;;;;;5049181;28;20510;-55
2021/12/25 11:29:18;;;;;;;1.77;1.63;;;2.20;1.00;;;;;;5050965;28;20529;-56
2021/12/25 11:31:44;;;;;;;2.97;1.70;;;2.20;1.00;;;;;;5053238;28;20458;-53
2021/12/25 11:34:13;;;;;;;2.83;1.80;;;2.00;1.00;;;;;;5071234;28;20438;-54
2021/12/25 11:36:48;;;;;;;2.00;1.73;;;1.80;1.00;;;;;;5056040;28;20439;-53
2021/12/25 11:39:15;;;;;;;2.73;1.60;;;1.70;1.00;;;;;;5051461;28;20452;-55
2021/12/25 11:41:42;;;;;;;3.60;1.87;;;1.60;1.00;;;;;;5050839;28;20944;-54
2021/12/25 11:44:28;;;;;;;4.03;2.23;;;1.40;1.00;;;;;;5050998;28;20436;-53
2021/12/25 11:46:54;;;;;;;2.00;1.70;;;1.00;1.00;;;;;;5054645;28;21020;-55
2021/12/25 11:49:20;;;;;;;2.70;2.30;;;0.90;1.00;;;;;;5050899;28;20470;-55
2021/12/25 11:51:46;;;;;;;3.30;2.10;;;0.80;1.00;;;;;;5053224;28;20192;-56
2021/12/25 11:57:51;;;;;;;3.50;1.80;;;0.70;1.00;;;;;;5050872;28;20435;-52
2021/12/25 11:59:51;;;;;;;4.70;1.90;;;0.70;1.00;;;;;;5047308;28;20446;-54
2021/12/25 12:02:37;;;;;;;2.47;1.40;;;0.90;1.00;;;;;;5050669;28;20453;-53
2021/12/25 12:05:24;;;;;;;2.07;1.80;;;1.10;1.00;;;;;;5052049;28;20443;-54
2021/12/25 12:08:15;;;;;;;2.80;1.67;;;1.30;1.00;;;;;;5051885;28;20820;-55
2021/12/25 12:10:48;;;;;;;2.23;1.90;;;1.40;1.00;;;;;;5048882;28;20537;-53
2021/12/25 12:13:24;;;;;;;3.00;2.10;;;1.20;1.00;;;;;;5051657;28;20435;-52
2021/12/25 12:15:54;;;;;;;5.30;1.73;;;1.20;1.00;;;;;;5052669;28;20443;-54
2021/12/25 12:18:26;;;;;;;2.07;1.87;;;1.20;1.00;;;;;;5058315;28;20970;-53
2021/12/25 12:20:57;;;;;;;2.47;1.77;;;1.30;1.00;;;;;;5050238;28;20467;-55
2021/12/25 12:23:42;;;;;;;1.87;1.50;;;1.30;1.00;;;;;;5050550;28;20454;-54
2021/12/25 12:26:11;;;;;;;3.03;1.93;;;;;;;;;;5053981;28;20482;-54
2021/12/25 12:28:53;;;;;;;6.43;2.13;;;1.20;1.00;;;;;;5052790;28;20928;-57
2021/12/25 12:31:37;;;;;;;4.17;2.00;;;1.20;1.00;;;;;;5053510;28;20926;-53
2021/12/25 12:34:29;;;;;;;3.70;1.87;;;1.30;1.00;;;;;;5052867;28;20439;-54
2021/12/25 12:37:24;;;;;;;4.77;2.97;;;1.30;1.00;;;;;;5045363;28;20494;-54
2021/12/25 12:39:59;;;;;;;3.13;2.33;;;;;;;;;;5048316;28;20470;-56
2021/12/25 12:42:50;;;;;;;2.80;2.10;;;1.20;1.00;;;;;;5050483;28;20492;-54
2021/12/25 12:45:19;;;;;;;6.67;3.43;;;1.10;1.00;;;;;;5063017;28;20793;-55
2021/12/25 12:48:06;;;;;;;4.83;2.70;;;1.20;1.00;;;;;;5063731;28;20463;-56
2021/12/25 12:50:33;;;;;;;3.20;2.87;;;1.20;1.00;;;;;;5052523;28;20454;-58
2021/12/25 12:53:01;;;;;;;4.63;2.23;;;1.20;1.00;;;;;;5049460;28;20435;-53
2021/12/25 12:55:30;;;;;;;5.13;2.77;;;1.20;1.00;;;;;;5050272;28;20801;-55
2021/12/25 12:58:32;;;;;;;4.50;3.07;;;1.30;1.00;;;;;;5064636;28;20983;-54
2021/12/25 13:01:01;;;;;;;4.93;1.97;;;1.30;1.00;;;;;;5062211;28;20442;-55
2021/12/25 13:03:29;;;;;;;3.30;1.60;;;1.30;1.00;;;;;;5048500;28;20939;-55
2021/12/25 13:05:58;;;;;;;3.60;2.10;;;1.30;1.00;;;;;;5053739;28;20443;-53
2021/12/25 13:08:34;;;;;;;2.97;2.20;;;1.40;1.00;;;;;;5054451;28;20779;-54
2021/12/25 13:11:14;;;;;;;3.93;1.97;;;1.50;1.00;;;;;;5052540;28;20835;-55
2021/12/25 13:13:50;;;;;;;1.90;1.53;;;1.40;1.00;;;;;;5049162;28;20443;-54
2021/12/25 13:16:16;;;;;;;3.20;2.03;;;1.20;1.00;;;;;;5049580;28;20439;-54
2021/12/25 13:18:48;;;;;;;3.33;2.10;;;0.80;1.00;;;;;;5051423;28;20448;-55
2021/12/25 13:21:18;;;;;;;4.70;3.60;;;0.60;1.00;;;;;;5058128;28;20410;-54
2021/12/25 13:23:50;;;;;;;3.43;2.43;;;0.50;1.00;;;;;;5049055;28;20436;-56
2021/12/25 13:26:19;;;;;;;3.37;2.13;;;0.50;1.00;;;;;;5049884;28;20571;-55
2021/12/25 13:28:46;;;;;;;5.70;2.37;;;0.60;1.00;;;;;;5055617;28;20443;-54
2021/12/25 13:31:15;;;;;;;3.00;2.30;;;0.50;1.00;;;;;;5048942;28;20435;-54
2021/12/25 13:33:47;;;;;;;4.40;3.00;;;0.50;1.00;;;;;;5047993;28;20805;-54
2021/12/25 13:36:15;;;;;;;3.37;2.53;;;0.40;1.00;;;;;;5050762;28;20958;-56
2021/12/25 13:38:59;;;;;;;3.63;2.63;;;0.40;1.00;;;;;;5049907;28;20972;-54
2021/12/25 13:41:34;;;;;;;3.57;2.53;;;0.20;1.00;;;;;;5048797;28;20435;-56
2021/12/25 13:44:18;;;;;;;4.90;1.90;;;;;;;;;;5052593;28;20791;-54
2021/12/25 13:47:24;;;;;;;5.73;2.80;;;0.10;1.00;;;;;;5051068;28;20470;-51
2021/12/25 13:49:55;;;;;;;3.17;2.33;;;-0.10;1.00;;;;;;5066752;28;20446;-53
2021/12/25 13:52:20;;;;;;;3.63;2.57;;;-0.30;1.00;;;;;;5052367;28;20475;-54
2021/12/25 13:54:57;;;;;;;5.97;4.17;;;-0.20;1.00;;;;;;5046611;28;20479;-54
2021/12/25 13:57:26;;;;;;;6.30;3.70;;;-0.30;1.00;;;;;;5046454;28;20187;-54
2021/12/25 14:00:01;;;;;;;2.33;2.10;;;-0.20;1.00;;;;;;5046711;28;20459;-53
2021/12/25 14:02:29;;;;;;;2.90;2.10;;;-0.10;1.00;;;;;;5053619;28;20454;-52
2021/12/25 14:04:56;;;;;;;7.97;2.93;;;-0.40;1.00;;;;;;5048572;28;20450;-56
2021/12/25 14:07:26;;;;;;;4.70;2.70;;;-0.40;1.00;;;;;;5049078;28;20573;-54
2021/12/25 14:10:03;;;;;;;4.00;2.50;;;-0.40;1.00;;;;;;5056216;28;20440;-54
2021/12/25 14:12:30;;;;;;;3.33;2.27;;;-0.40;1.00;;;;;;5052633;28;20450;-52
2021/12/25 14:14:57;;;;;;;3.03;2.73;;;-0.40;1.00;;;;;;5054436;28;20532;-54
2021/12/25 14:17:23;;;;;;;3.60;2.03;;;-0.60;1.00;;;;;;5053092;28;20526;-54
2021/12/25 14:20:01;;;;;;;9.40;3.80;;;-0.60;1.00;;;;;;5051426;28;20849;-53
2021/12/25 14:22:27;;;;;;;2.47;2.17;;;-0.70;1.00;;;;;;5058183;28;20500;-54
2021/12/25 14:24:52;;;;;;;3.77;2.03;;;-0.90;1.00;;;;;;5051982;28;20483;-54